If you wish to contribute or participate in the discussions about articles you are invited to join SKYbrary as a registered user

 Actions

Luanda/Quatro de Fevereiro Airport

From SKYbrary Wiki

FNLU
Airport
ICAO: FNLU – IATA: LAD
Summary
Name Luanda/Quatro de Fevereiro Airport
Region Africa
Territory Angola AO.gif
Location Luanda, Luanda
Serving Luanda
Elevation 74.066 m <br />243 ft <br />243 ft74.066 m <br />
Coordinates 8° 51' 30.15" S, 13° 13' 52.24" E
Runways
Designator Length Width Surface ROPS
5/23 3716 m12,191.601 ft <br /> 45 m147.638 ft <br /> ASP yes/yes
7/25 2600 m8,530.184 ft <br /> 60 m196.85 ft <br /> ASP yes/yes


METAR
Observation FNLU 241200Z 25007KT 9999 BKN020 26/22 Q1011
Station Luanda
Date/Time 24 October 2021 12:00:00
Wind direction 250°
Wind speed 07 kts
Lowest cloud amount broken clouds
Temperature 26°C
Dew point 22°C
Humidity 78%
QNH 1011 hPa
Weather condition n/a

Maps

Terrain

Loading map...

Airport Layout

Loading map...


Accidents & Serious Incidents at or in vicinity of FNLU

None on SKYbrary